createdAt,value
2023-04-07T00:01:50.729Z,100213.31
2023-04-07T00:04:53.920Z,100205.69
2023-04-07T00:07:57.493Z,100212.69
2023-04-07T00:11:01.032Z,100212.50
2023-04-07T00:14:04.176Z,100203.81
2023-04-07T00:17:07.023Z,100207.47
2023-04-07T00:20:10.732Z,100208.75
2023-04-07T00:23:13.735Z,100209.81
2023-04-07T00:26:16.897Z,100205.03
2023-04-07T00:29:20.321Z,100198.94
2023-04-07T00:32:23.524Z,100204.19
2023-04-07T00:35:26.415Z,100205.78
2023-04-07T00:38:29.097Z,100198.69
2023-04-07T00:41:35.451Z,100196.88
2023-04-07T00:44:38.304Z,100203.19
2023-04-07T00:47:41.316Z,100199.25
2023-04-07T00:50:45.812Z,100198.75
2023-04-07T00:53:49.630Z,100198.78
2023-04-07T00:56:53.137Z,100200.78
2023-04-07T00:59:56.441Z,100205.22
2023-04-07T01:03:09.781Z,100198.19
2023-04-07T01:06:17.867Z,100195.75
2023-04-07T01:09:28.963Z,100193.09
2023-04-07T01:12:44.059Z,100202.28
2023-04-07T01:15:53.144Z,100197.28
2023-04-07T01:19:24.133Z,100206.53
2023-04-07T01:22:42.147Z,100212.31
2023-04-07T01:26:20.248Z,100198.94
2023-04-07T01:29:37.836Z,100202.06
2023-04-07T01:32:45.042Z,100205.59
2023-04-07T01:35:48.929Z,100202.16
2023-04-07T01:38:52.624Z,100203.22
2023-04-07T01:41:57.820Z,100191.69
2023-04-07T01:45:02.065Z,100197.72
2023-04-07T01:48:09.257Z,100196.94
2023-04-07T01:51:17.583Z,100198.00
2023-04-07T01:54:21.139Z,100190.09
2023-04-07T01:57:23.584Z,100193.50
2023-04-07T02:00:31.042Z,100200.34
2023-04-07T02:03:47.010Z,100200.59
2023-04-07T02:06:59.756Z,100194.91
2023-04-07T02:10:13.485Z,100196.56
2023-04-07T02:13:19.491Z,100197.28
2023-04-07T02:16:24.164Z,100200.13
2023-04-07T02:19:28.160Z,100202.28
2023-04-07T02:22:33.201Z,100200.72
2023-04-07T02:25:38.414Z,100198.66
2023-04-07T02:28:41.045Z,100204.19
2023-04-07T02:31:44.041Z,100203.19
2023-04-07T02:34:46.818Z,100201.91
2023-04-07T02:37:49.899Z,100206.38
2023-04-07T02:40:52.840Z,100203.00
2023-04-07T02:43:55.862Z,100198.69
2023-04-07T02:46:58.945Z,100198.50
2023-04-07T02:50:01.844Z,100199.28
2023-04-07T02:53:04.750Z,100203.09
2023-04-07T02:56:07.806Z,100202.78
2023-04-07T02:59:10.751Z,100198.41
2023-04-07T03:02:17.967Z,100210.78
2023-04-07T03:05:20.630Z,100210.28
2023-04-07T03:08:24.130Z,100206.91
2023-04-07T03:11:28.071Z,100209.78
2023-04-07T03:14:33.464Z,100210.06
2023-04-07T03:17:37.662Z,100217.13
2023-04-07T03:20:42.656Z,100220.81
2023-04-07T03:23:47.563Z,100217.19
2023-04-07T03:26:51.580Z,100228.41
2023-04-07T03:30:00.604Z,100224.25
2023-04-07T03:33:05.873Z,100220.81
2023-04-07T03:36:09.557Z,100218.41
2023-04-07T03:39:12.925Z,100221.56
2023-04-07T03:42:15.592Z,100222.41
2023-04-07T03:45:19.886Z,100221.81
2023-04-07T03:48:25.545Z,100230.78
2023-04-07T03:51:38.185Z,100235.25
2023-04-07T03:54:48.388Z,100226.53
2023-04-07T03:57:51.837Z,100233.78
2023-04-07T04:00:55.696Z,100230.66
2023-04-07T04:03:59.986Z,100236.72
2023-04-07T04:07:05.326Z,100240.38
2023-04-07T04:10:17.170Z,100237.75
2023-04-07T04:13:24.156Z,100247.56
2023-04-07T04:16:27.316Z,100240.56
2023-04-07T04:19:33.879Z,100246.09
2023-04-07T04:22:42.122Z,100246.59
2023-04-07T04:25:45.469Z,100255.06
2023-04-07T04:28:49.605Z,100255.31
2023-04-07T04:31:54.051Z,100261.41
2023-04-07T04:34:57.633Z,100254.81
2023-04-07T04:38:01.166Z,100258.47
2023-04-07T04:41:04.035Z,100265.06
2023-04-07T04:44:07.934Z,100262.97
2023-04-07T04:47:11.671Z,100272.94
2023-04-07T04:50:16.554Z,100269.09
2023-04-07T04:53:21.788Z,100279.38
2023-04-07T04:56:34.715Z,100272.75
2023-04-07T04:59:38.090Z,100273.84
2023-04-07T05:02:43.278Z,100268.59
2023-04-07T05:05:49.050Z,100273.59
2023-04-07T05:08:53.662Z,100283.56
2023-04-07T05:12:02.775Z,100278.66
2023-04-07T05:15:10.670Z,100281.03
2023-04-07T05:18:14.710Z,100281.84
2023-04-07T05:21:17.622Z,100280.28
2023-04-07T05:24:20.352Z,100286.56
2023-04-07T05:27:28.033Z,100288.44
2023-04-07T05:30:36.967Z,100292.69
2023-04-07T05:33:40.505Z,100295.38
2023-04-07T05:36:43.538Z,100301.38
2023-04-07T05:39:45.958Z,100301.13
2023-04-07T05:42:50.621Z,100309.56
2023-04-07T05:45:53.309Z,100312.19
2023-04-07T05:48:59.156Z,100301.66
2023-04-07T05:52:06.166Z,100319.00
2023-04-07T05:55:13.792Z,100315.31
2023-04-07T05:58:17.595Z,100317.09
2023-04-07T06:01:26.342Z,100315.34
2023-04-07T06:04:29.997Z,100319.78
2023-04-07T06:07:32.866Z,100317.94
2023-04-07T06:10:36.347Z,100318.13
2023-04-07T06:13:39.602Z,100318.72
2023-04-07T06:16:42.473Z,100311.63
2023-04-07T06:19:45.531Z,100313.75
2023-04-07T06:22:48.280Z,100320.56
2023-04-07T06:25:53.541Z,100316.56
2023-04-07T06:28:56.596Z,100316.31
2023-04-07T06:31:59.769Z,100319.94
2023-04-07T06:35:02.232Z,100315.47
2023-04-07T06:38:06.506Z,100323.03
2023-04-07T06:41:13.015Z,100321.81
2023-04-07T06:44:16.202Z,100317.31
2023-04-07T06:47:18.910Z,100324.00
2023-04-07T06:50:23.386Z,100322.22
2023-04-07T06:53:26.339Z,100327.31
2023-04-07T06:56:29.284Z,100335.81
2023-04-07T06:59:32.722Z,100337.16
2023-04-07T07:02:36.164Z,100335.56
2023-04-07T07:05:38.719Z,100332.69
2023-04-07T07:08:41.894Z,100341.09
2023-04-07T07:11:44.373Z,100346.03
2023-04-07T07:14:47.761Z,100344.53
2023-04-07T07:17:50.616Z,100347.44
2023-04-07T07:20:53.545Z,100356.97
2023-04-07T07:23:56.292Z,100355.66
2023-04-07T07:26:59.116Z,100353.59
2023-04-07T07:30:01.861Z,100362.25
2023-04-07T07:33:04.969Z,100368.03
2023-04-07T07:36:08.546Z,100372.03
2023-04-07T07:39:11.729Z,100360.44
2023-04-07T07:42:15.356Z,100367.81
2023-04-07T07:45:19.786Z,100373.69
2023-04-07T07:48:22.659Z,100373.41
2023-04-07T07:51:25.518Z,100378.69
2023-04-07T07:54:28.316Z,100378.72
2023-04-07T07:57:34.110Z,100380.81
2023-04-07T08:00:36.821Z,100381.09
2023-04-07T08:03:40.191Z,100380.31
2023-04-07T08:06:42.914Z,100382.97
2023-04-07T08:09:45.948Z,100380.34
2023-04-07T08:12:48.420Z,100387.47
2023-04-07T08:15:51.864Z,100382.22
2023-04-07T08:18:54.868Z,100380.59
2023-04-07T08:21:57.984Z,100386.88
2023-04-07T08:25:00.818Z,100388.72
2023-04-07T08:28:03.704Z,100390.03
2023-04-07T08:31:07.262Z,100385.28
2023-04-07T08:34:10.280Z,100395.28
2023-04-07T08:37:12.688Z,100387.56
2023-04-07T08:40:17.585Z,100391.09
2023-04-07T08:43:21.059Z,100398.47
2023-04-07T08:46:25.955Z,100403.19
2023-04-07T08:49:29.959Z,100397.63
2023-04-07T08:52:42.145Z,100401.81
2023-04-07T08:55:44.889Z,100409.50
2023-04-07T08:58:49.303Z,100409.56
2023-04-07T09:01:52.797Z,100401.63
2023-04-07T09:04:57.408Z,100412.47
2023-04-07T09:07:59.806Z,100409.81
2023-04-07T09:11:04.161Z,100415.91
2023-04-07T09:14:06.630Z,100413.28
2023-04-07T09:17:09.727Z,100412.25
2023-04-07T09:20:14.053Z,100417.00
2023-04-07T09:23:41.170Z,100410.66
2023-04-07T09:26:43.834Z,100411.72
2023-04-07T09:29:47.969Z,100413.81
2023-04-07T09:32:51.205Z,100407.75
2023-04-07T09:35:54.906Z,100419.59
2023-04-07T09:39:08.422Z,100422.00
2023-04-07T09:42:14.518Z,100424.09
2023-04-07T09:45:34.715Z,100422.50
2023-04-07T09:48:40.028Z,100429.91
2023-04-07T09:52:07.857Z,100421.16
2023-04-07T09:55:11.058Z,100433.53
2023-04-07T09:58:16.984Z,100422.78
2023-04-07T10:01:22.201Z,100425.94
2023-04-07T10:04:25.834Z,100421.16
2023-04-07T10:07:28.823Z,100432.78
2023-04-07T10:10:32.205Z,100431.72
2023-04-07T10:13:37.975Z,100440.69
2023-04-07T10:16:43.151Z,100439.91
2023-04-07T10:19:49.253Z,100439.38
2023-04-07T10:22:54.901Z,100440.16
2023-04-07T10:26:00.961Z,100444.13
2023-04-07T10:29:08.594Z,100438.53
2023-04-07T10:32:11.689Z,100442.75
2023-04-07T10:35:14.395Z,100443.56
2023-04-07T10:38:18.720Z,100453.53
2023-04-07T10:41:36.748Z,100457.63
2023-04-07T10:44:39.898Z,100455.00
2023-04-07T10:48:09.726Z,100449.25
2023-04-07T10:51:16.037Z,100447.16
2023-04-07T10:54:23.287Z,100454.00
2023-04-07T10:57:25.974Z,100451.59
2023-04-07T11:00:28.752Z,100454.75
2023-04-07T11:03:36.607Z,100453.47
2023-04-07T11:06:48.105Z,100462.97
2023-04-07T11:09:51.185Z,100461.72
2023-04-07T11:13:01.592Z,100464.63
2023-04-07T11:16:04.733Z,100459.09
2023-04-07T11:19:08.076Z,100455.16
2023-04-07T11:22:28.625Z,100454.91
2023-04-07T11:25:33.384Z,100460.47
2023-04-07T11:28:44.924Z,100462.06
2023-04-07T11:31:48.460Z,100459.66
2023-04-07T11:34:51.372Z,100464.94
2023-04-07T11:37:59.273Z,100454.63
2023-04-07T11:41:14.862Z,100463.03
2023-04-07T11:44:17.437Z,100463.34
2023-04-07T11:47:20.121Z,100464.41
2023-04-07T11:50:41.002Z,100461.50
2023-04-07T11:53:44.711Z,100460.97
2023-04-07T11:56:48.361Z,100473.38
2023-04-07T11:59:51.129Z,100462.81
2023-04-07T12:02:53.850Z,100472.81
2023-04-07T12:05:57.141Z,100476.50
2023-04-07T12:08:59.804Z,100472.75
2023-04-07T12:12:08.095Z,100476.72
2023-04-07T12:15:11.002Z,100468.56
2023-04-07T12:18:16.324Z,100475.66
2023-04-07T12:21:26.819Z,100478.03
2023-04-07T12:24:32.689Z,100473.47
2023-04-07T12:27:42.711Z,100471.09
2023-04-07T12:30:46.627Z,100479.56
2023-04-07T12:33:50.007Z,100472.72
2023-04-07T12:36:53.296Z,100478.75
2023-04-07T12:39:56.106Z,100475.31
2023-04-07T12:42:59.150Z,100494.13
2023-04-07T12:46:02.989Z,100488.06
2023-04-07T12:49:06.122Z,100492.03
2023-04-07T12:52:08.766Z,100498.09
2023-04-07T12:55:12.090Z,100493.56
2023-04-07T12:58:14.906Z,100493.88
2023-04-07T13:01:17.751Z,100495.69
2023-04-07T13:04:20.540Z,100503.91
2023-04-07T13:07:23.670Z,100495.72
2023-04-07T13:10:28.732Z,100492.34
2023-04-07T13:13:32.132Z,100498.94
2023-04-07T13:16:34.547Z,100503.41
2023-04-07T13:19:37.741Z,100499.72
2023-04-07T13:22:49.298Z,100505.28
2023-04-07T13:25:55.098Z,100505.03
2023-04-07T13:28:58.402Z,100494.44
2023-04-07T13:32:07.477Z,100511.84
2023-04-07T13:35:10.462Z,100503.41
2023-04-07T13:38:13.492Z,100511.88
2023-04-07T13:41:16.218Z,100511.34
2023-04-07T13:44:18.916Z,100513.72
2023-04-07T13:47:21.753Z,100507.13
2023-04-07T13:50:25.426Z,100516.31
2023-04-07T13:53:27.951Z,100517.16
2023-04-07T13:56:31.153Z,100519.25
2023-04-07T13:59:33.872Z,100514.53
2023-04-07T14:02:36.914Z,100522.97
2023-04-07T14:05:39.932Z,100517.69
2023-04-07T14:08:43.246Z,100522.97
2023-04-07T14:11:45.977Z,100514.78
2023-04-07T14:14:52.421Z,100515.56
2023-04-07T14:17:54.941Z,100519.25
2023-04-07T14:20:57.923Z,100523.50
2023-04-07T14:24:00.342Z,100518.47
2023-04-07T14:27:04.185Z,100525.06
2023-04-07T14:30:07.275Z,100516.63
2023-04-07T14:33:12.576Z,100518.22
2023-04-07T14:36:16.865Z,100519.53
2023-04-07T14:39:20.195Z,100525.06
2023-04-07T14:42:22.889Z,100512.91
2023-04-07T14:45:25.972Z,100511.09
2023-04-07T14:48:28.440Z,100526.69
2023-04-07T14:51:31.613Z,100526.13
2023-04-07T14:54:34.180Z,100523.22
2023-04-07T14:57:37.121Z,100530.88
2023-04-07T15:00:39.933Z,100519.03
2023-04-07T15:03:42.888Z,100529.03
2023-04-07T15:06:47.347Z,100528.25
2023-04-07T15:09:50.674Z,100529.84
2023-04-07T15:12:53.467Z,100535.66
2023-04-07T15:15:56.790Z,100539.34
2023-04-07T15:18:59.673Z,100539.59
2023-04-07T15:22:02.729Z,100535.66
2023-04-07T15:25:05.822Z,100542.25
2023-04-07T15:28:09.057Z,100538.28
2023-04-07T15:31:11.973Z,100543.31
2023-04-07T15:34:14.692Z,100536.97
2023-04-07T15:37:18.866Z,100548.28
2023-04-07T15:40:21.907Z,100549.34
2023-04-07T15:43:24.828Z,100548.81
2023-04-07T15:46:28.168Z,100545.13
2023-04-07T15:49:30.670Z,100546.16
2023-04-07T15:52:33.657Z,100556.69
2023-04-07T15:55:36.665Z,100559.84
2023-04-07T15:58:39.881Z,100562.47
2023-04-07T16:01:42.989Z,100568.44
2023-04-07T16:04:47.709Z,100565.28
2023-04-07T16:07:50.578Z,100565.00
2023-04-07T16:10:53.755Z,100558.16
2023-04-07T16:13:56.550Z,100559.75
2023-04-07T16:16:59.526Z,100562.38
2023-04-07T16:20:03.205Z,100561.59
2023-04-07T16:23:06.097Z,100568.72
2023-04-07T16:26:08.798Z,100573.22
2023-04-07T16:29:11.621Z,100576.09
2023-04-07T16:32:14.263Z,100577.47
2023-04-07T16:35:17.348Z,100580.56
2023-04-07T16:38:20.161Z,100590.03
2023-04-07T16:41:23.098Z,100581.06
2023-04-07T16:44:25.958Z,100587.63
2023-04-07T16:47:29.699Z,100597.16
2023-04-07T16:50:32.309Z,100596.03
2023-04-07T16:53:35.303Z,100598.66
2023-04-07T16:56:37.775Z,100598.41
2023-04-07T16:59:41.184Z,100597.38
2023-04-07T17:02:44.018Z,100602.59
2023-04-07T17:05:47.407Z,100610.78
2023-04-07T17:08:50.066Z,100612.88
2023-04-07T17:11:53.132Z,100616.31
2023-04-07T17:14:55.806Z,100619.16
2023-04-07T17:17:58.858Z,100618.38
2023-04-07T17:21:01.566Z,100618.91
2023-04-07T17:24:06.555Z,100628.06
2023-04-07T17:27:09.170Z,100626.56
2023-04-07T17:30:12.875Z,100632.13
2023-04-07T17:33:16.608Z,100628.34
2023-04-07T17:36:19.432Z,100638.09
2023-04-07T17:39:22.229Z,100632.53
2023-04-07T17:42:25.135Z,100638.59
2023-04-07T17:45:27.999Z,100644.91
2023-04-07T17:48:31.694Z,100642.81
2023-04-07T17:51:34.421Z,100650.97
2023-04-07T17:54:37.902Z,100649.38
2023-04-07T17:57:41.760Z,100658.53
2023-04-07T18:00:45.409Z,100659.63
2023-04-07T18:03:48.696Z,100660.66
2023-04-07T18:06:51.653Z,100664.59
2023-04-07T18:09:54.302Z,100671.38
2023-04-07T18:12:57.995Z,100669.06
2023-04-07T18:16:00.853Z,100678.34
2023-04-07T18:19:04.270Z,100676.09
2023-04-07T18:22:06.680Z,100686.13
2023-04-07T18:25:09.728Z,100685.59
2023-04-07T18:28:12.572Z,100688.72
2023-04-07T18:31:15.947Z,100686.31
2023-04-07T18:34:18.612Z,100697.41
2023-04-07T18:37:21.941Z,100699.00
2023-04-07T18:40:24.915Z,100699.97
2023-04-07T18:43:28.228Z,100695.00
2023-04-07T18:46:31.143Z,100706.13
2023-04-07T18:49:34.575Z,100706.34
2023-04-07T18:52:37.284Z,100712.28
2023-04-07T18:55:40.043Z,100714.09
2023-04-07T18:58:45.904Z,100719.44
2023-04-07T19:01:49.266Z,100714.19
2023-04-07T19:04:52.156Z,100723.50
2023-04-07T19:07:54.975Z,100720.59
2023-04-07T19:10:57.847Z,100719.75
2023-04-07T19:14:01.041Z,100721.78
2023-04-07T19:17:03.790Z,100719.69
2023-04-07T19:20:07.890Z,100720.25
2023-04-07T19:23:10.405Z,100718.66
2023-04-07T19:26:14.355Z,100718.88
2023-04-07T19:29:17.481Z,100725.38
2023-04-07T19:32:21.287Z,100721.19
2023-04-07T19:35:24.386Z,100723.16
2023-04-07T19:38:27.039Z,100726.59
2023-04-07T19:41:30.722Z,100730.78
2023-04-07T19:44:34.647Z,100729.50
2023-04-07T19:47:38.493Z,100731.06
2023-04-07T19:50:44.076Z,100726.25
2023-04-07T19:53:47.001Z,100730.00
2023-04-07T19:56:50.130Z,100727.00
2023-04-07T19:59:52.572Z,100732.81
2023-04-07T20:02:56.955Z,100743.56
2023-04-07T20:05:59.975Z,100734.94
2023-04-07T20:09:02.959Z,100745.97
2023-04-07T20:12:05.622Z,100741.50
2023-04-07T20:15:09.176Z,100741.56
2023-04-07T20:18:12.412Z,100742.44
2023-04-07T20:21:16.334Z,100746.09
2023-04-07T20:24:19.028Z,100746.13
2023-04-07T20:27:21.768Z,100744.38
2023-04-07T20:30:27.027Z,100752.59
2023-04-07T20:33:30.784Z,100751.00
2023-04-07T20:36:33.664Z,100755.28
2023-04-07T20:39:36.331Z,100759.19
2023-04-07T20:42:39.303Z,100755.28
2023-04-07T20:45:41.942Z,100757.19
2023-04-07T20:48:44.728Z,100757.66
2023-04-07T20:51:47.695Z,100753.50
2023-04-07T20:54:50.120Z,100759.44
2023-04-07T20:57:54.822Z,100759.44
2023-04-07T21:00:59.005Z,100755.75
2023-04-07T21:04:03.128Z,100759.44
2023-04-07T21:07:06.022Z,100765.72
2023-04-07T21:10:10.016Z,100761.03
2023-04-07T21:13:14.376Z,100766.78
2023-04-07T21:16:17.337Z,100760.53
2023-04-07T21:19:20.778Z,100756.25
2023-04-07T21:22:23.908Z,100756.72
2023-04-07T21:25:26.396Z,100768.59
2023-04-07T21:28:29.452Z,100763.66
2023-04-07T21:31:33.042Z,100763.97
2023-04-07T21:34:36.472Z,100762.06
2023-04-07T21:37:39.167Z,100766.91
2023-04-07T21:40:41.727Z,100759.25
2023-04-07T21:43:44.510Z,100764.03
2023-04-07T21:46:48.153Z,100756.97
2023-04-07T21:49:50.965Z,100762.72
2023-04-07T21:52:54.091Z,100773.75
2023-04-07T21:55:56.510Z,100764.84
2023-04-07T21:58:59.256Z,100767.19
2023-04-07T22:02:02.701Z,100766.13
2023-04-07T22:05:06.623Z,100769.00
2023-04-07T22:08:09.307Z,100769.53
2023-04-07T22:11:12.230Z,100775.84
2023-04-07T22:14:14.899Z,100774.56
2023-04-07T22:17:17.827Z,100766.66
2023-04-07T22:20:20.955Z,100767.97
2023-04-07T22:23:23.913Z,100772.44
2023-04-07T22:26:26.412Z,100765.88
2023-04-07T22:29:29.325Z,100774.28
2023-04-07T22:32:31.735Z,100770.34
2023-04-07T22:35:35.016Z,100773.06
2023-04-07T22:38:37.738Z,100773.31
2023-04-07T22:41:40.332Z,100772.09
2023-04-07T22:44:43.057Z,100777.34
2023-04-07T22:47:45.873Z,100773.44
2023-04-07T22:50:48.587Z,100781.25
2023-04-07T22:53:51.646Z,100780.25
2023-04-07T22:56:54.091Z,100784.44
2023-04-07T22:59:57.335Z,100783.41
2023-04-07T23:02:59.913Z,100783.09
2023-04-07T23:06:03.173Z,100780.22
2023-04-07T23:09:06.309Z,100780.94
2023-04-07T23:12:09.263Z,100777.59
2023-04-07T23:15:12.237Z,100777.59
2023-04-07T23:18:15.030Z,100777.03
2023-04-07T23:21:17.685Z,100777.84
2023-04-07T23:24:21.173Z,100782.13
2023-04-07T23:27:23.682Z,100778.88
2023-04-07T23:30:29.324Z,100783.09
2023-04-07T23:33:31.856Z,100779.13
2023-04-07T23:36:35.141Z,100783.81
2023-04-07T23:39:37.970Z,100781.19
2023-04-07T23:42:40.736Z,100784.38
2023-04-07T23:45:43.658Z,100774.41
2023-04-07T23:48:46.690Z,100775.94
2023-04-07T23:51:49.803Z,100780.41
2023-04-07T23:54:52.835Z,100776.25
2023-04-07T23:57:55.277Z,100774.81
